Aérodrome :
LOGIN :

S'inscrire | Disclaimer

   EN    FR    IT 

 










Légende :    VFR   VFR Marginal   IFR   IFR Intensif   IFR Très Intensif
Visi : 
Plafond : 
>= 8 km
>= 3000ft
5 à 8 km
1000 à 3000 ft
1500m à 5 km
500 à 1000 ft
800 à 1500m
200 à 500 ft
< 800m
< 200 ft
Symboles :   Orages  Brouillard  Fortes neiges  Fortes précipitations  Vent > 20 kt
SIGMETs :   Divers  Orages  Givrage  Turbulence  Onde Orograph.  Cendres Volcan.






- Altitude de l'aérodrome : 1300 ft
- Code IATA : LIG


LFBL - Limoges

DERNIER METAR :
  • 241800Z AUTO 22009KT CAVOK 10/04 Q1020 BECMG BKN013

METARs EXPIRÉS :
  • 241730Z AUTO 23006KT CAVOK 11/04 Q1020 BECMG BKN008
  • 241700Z AUTO 21009KT CAVOK 12/04 Q1020 BECMG BKN008
  • 241630Z AUTO 21010KT CAVOK 12/03 Q1020 BECMG BKN008
  • 241600Z AUTO 20011KT CAVOK 13/03 Q1020 TEMPO BKN010
  • 241530Z AUTO 21012KT CAVOK 13/02 Q1021 TEMPO BKN010

TAF TAF LFBL
Valide du 24 à 18h jusqu'au 25 à 18h UTC


241700Z 2418/2518 22008KT CAVOK
BECMG 2418/2420 BKN013
BECMG 2420/2422 BKN008
BECMG 2422/2424 7000 OVC005 BKN015
TEMPO 2500/2514 1500 RADZ OVC002
BECMG 2513/2515 28020G30KT 9999 BKN013
TEMPO 2514/2518 BKN020
ATIS : +33 5 55 48 40 37



MET'MAP, la Météo Aéronautique d'un coup d'oeil ! - Copyright ORBIFLY Décembre 2007 - Disclaimer

ORBIFLY MET'MAP TEAM :

Programmation & Développement : Alexandra Zaïnal
Sur une idée originale de : Baudouin d'Aumeries
Assistance à la programmation : Marc-Olivier Méhu
Soutien technique & logistique : Manuel Goepfert

Contact : metmap@orbifly.com




SOURCES & CREDITS :

   NOAA